Terminal Aerodrome Forecast
Issued by NWS Jackson, MS

Home | Current Version | Previous Version | Text Only | Print | Product List | Glossary On
Versions: 1 2 3 4 5 6 7 8 9 10 11 12
238
FTUS44 KJAN 221756
TAFGWO
TAF
KGWO 221756Z 2218/2318 15017G25KT P6SM VCSH SCT025 BKN040
     FM230400 17015G25KT P6SM BKN025 OVC060
     FM231400 18015G25KT P6SM VCSH SCT015 BKN025=

USA.gov is the U.S. government's official web portal to all federal, state and local government web resources and services.